Time;durP1;ratioP1;P1;durP2;ratioP2;P2;SDS_P1;SDS_P2;PMS_P1;PMS_P2;Temp;Humidity;BMP_temperature;BMP_pressure;BME280_temperature;BME280_humidity;BME280_pressure;Samples;Min_cycle;Max_cycle;Signal;HPM_P1;HPM_P2
2022/12/21 00:02:12;;;;;;;0.60;0.60;;;10.00;99.90;;;;;;4925105;28;20053;-86
2022/12/21 00:04:38;;;;;;;0.60;0.60;;;10.00;99.90;;;;;;4925903;28;20041;-85
2022/12/21 00:07:04;;;;;;;0.60;0.60;;;10.00;99.90;;;;;;4942001;28;20083;-85
2022/12/21 00:09:30;;;;;;;0.50;0.50;;;10.00;99.90;;;;;;4942763;28;20052;-86
2022/12/21 00:11:56;;;;;;;0.50;0.50;;;10.00;99.90;;;;;;4927321;28;20398;-86
2022/12/21 00:14:22;;;;;;;0.60;0.60;;;10.00;99.90;;;;;;4935459;28;20820;-85
2022/12/21 00:16:48;;;;;;;0.60;0.60;;;10.10;99.90;;;;;;4929066;28;20502;-85
2022/12/21 00:19:14;;;;;;;0.50;0.50;;;10.10;99.90;;;;;;4936499;28;20438;-85
2022/12/21 00:21:41;;;;;;;0.60;0.60;;;10.10;99.90;;;;;;4923887;28;20130;-85
2022/12/21 00:24:07;;;;;;;0.60;0.60;;;10.00;99.90;;;;;;4925977;28;20524;-85
2022/12/21 00:26:36;;;;;;;0.60;0.60;;;10.00;99.90;;;;;;4943673;28;20061;-85
2022/12/21 00:29:03;;;;;;;0.50;0.50;;;9.90;99.90;;;;;;4943144;28;20567;-86
2022/12/21 00:31:32;;;;;;;0.50;0.50;;;9.90;99.90;;;;;;4944062;28;20045;-86
2022/12/21 00:33:58;;;;;;;0.60;0.60;;;10.00;99.90;;;;;;4952609;28;20045;-85
2022/12/21 00:36:27;;;;;;;0.60;0.60;;;9.90;99.90;;;;;;4928026;28;20726;-85
2022/12/21 00:38:53;;;;;;;0.50;0.50;;;9.80;99.90;;;;;;4943182;28;20142;-85
2022/12/21 00:41:22;;;;;;;0.60;0.60;;;9.90;99.90;;;;;;4924406;28;20057;-85
2022/12/21 00:43:57;;;;;;;0.50;0.50;;;9.80;99.90;;;;;;4962750;28;20145;-85
2022/12/21 00:46:26;;;;;;;0.50;0.50;;;9.80;99.90;;;;;;4933735;28;21918;-85
2022/12/21 00:48:54;;;;;;;0.50;0.50;;;9.80;99.90;;;;;;4944398;28;20064;-85
2022/12/21 00:51:22;;;;;;;0.60;0.60;;;9.70;99.90;;;;;;4935297;28;20045;-84
2022/12/21 00:53:48;;;;;;;0.50;0.50;;;9.70;99.90;;;;;;4958592;28;20915;-85
2022/12/21 00:56:15;;;;;;;0.50;0.50;;;9.80;99.90;;;;;;4943149;28;20567;-85
2022/12/21 00:58:42;;;;;;;0.50;0.50;;;9.70;99.90;;;;;;4947833;28;20053;-85
2022/12/21 01:01:36;;;;;;;0.50;0.50;;;9.70;99.90;;;;;;4952767;28;20599;-85
2022/12/21 01:04:02;;;;;;;;;;;9.60;99.90;;;;;;4963119;28;20052;-85
2022/12/21 01:06:31;;;;;;;0.50;0.50;;;9.50;99.90;;;;;;4947422;28;20316;-85
2022/12/21 01:08:57;;;;;;;0.50;0.50;;;9.40;99.90;;;;;;4946277;28;20574;-85
2022/12/21 01:11:24;;;;;;;0.50;0.50;;;9.40;99.90;;;;;;4948394;28;20079;-85
2022/12/21 01:13:51;;;;;;;0.50;0.50;;;9.30;99.90;;;;;;4928877;28;20530;-85
2022/12/21 01:16:20;;;;;;;0.55;0.55;;;9.20;99.90;;;;;;4929146;28;20088;-85
2022/12/21 01:18:47;;;;;;;0.60;0.60;;;9.10;99.90;;;;;;4947239;28;20053;-85
2022/12/21 01:21:25;;;;;;;0.57;0.57;;;9.10;99.90;;;;;;4948725;28;20498;-85
2022/12/21 01:23:52;;;;;;;0.50;0.50;;;9.20;99.90;;;;;;4940449;28;20371;-84
2022/12/21 01:26:18;;;;;;;0.60;0.60;;;9.20;99.90;;;;;;4929964;28;20450;-84
2022/12/21 01:28:45;;;;;;;0.50;0.50;;;9.10;99.90;;;;;;4954325;28;20929;-84
2022/12/21 01:31:11;;;;;;;0.50;0.50;;;9.10;99.90;;;;;;4945967;28;20601;-85
2022/12/21 01:33:37;;;;;;;0.52;0.52;;;9.10;99.90;;;;;;4941550;28;20135;-84
2022/12/21 01:36:10;;;;;;;0.50;0.50;;;9.10;99.90;;;;;;4923751;28;22329;-85
2022/12/21 01:38:39;;;;;;;0.60;0.60;;;9.10;99.90;;;;;;4970408;28;20343;-84
2022/12/21 01:41:05;;;;;;;0.60;0.60;;;9.10;99.90;;;;;;4956874;28;20045;-84
2022/12/21 01:44:04;;;;;;;0.60;0.60;;;9.10;99.90;;;;;;4926076;28;20061;-85
2022/12/21 01:46:46;;;;;;;0.60;0.60;;;9.10;99.90;;;;;;4949024;28;20045;-85
2022/12/21 01:49:31;;;;;;;0.50;0.50;;;9.10;99.90;;;;;;4942551;28;20110;-84
2022/12/21 01:52:02;;;;;;;0.50;0.50;;;9.10;99.90;;;;;;4937111;28;21216;-84
2022/12/21 01:54:43;;;;;;;0.60;0.60;;;9.10;99.90;;;;;;4975195;28;20083;-84
2022/12/21 01:57:12;;;;;;;0.50;0.50;;;9.20;99.90;;;;;;4957182;28;20211;-84
2022/12/21 01:59:47;;;;;;;0.50;0.50;;;9.10;99.90;;;;;;4934248;28;20286;-84
2022/12/21 02:02:23;;;;;;;0.60;0.60;;;9.10;99.90;;;;;;4945862;28;20163;-84
2022/12/21 02:04:52;;;;;;;0.60;0.60;;;9.20;99.90;;;;;;4950306;28;20503;-84
2022/12/21 02:07:20;;;;;;;0.60;0.60;;;9.20;99.90;;;;;;4949445;28;20645;-85
2022/12/21 02:09:47;;;;;;;0.60;0.60;;;9.10;99.90;;;;;;4954079;28;20072;-84
2022/12/21 02:12:15;;;;;;;0.60;0.60;;;9.20;99.90;;;;;;4947585;28;20491;-85
2022/12/21 02:14:45;;;;;;;0.60;0.60;;;9.20;99.90;;;;;;4952283;28;20571;-85
2022/12/21 02:17:30;;;;;;;0.60;0.60;;;9.20;99.90;;;;;;4945129;28;20056;-84
2022/12/21 02:20:41;;;;;;;0.60;0.60;;;9.20;99.90;;;;;;4943484;28;20041;-84
2022/12/21 02:23:46;;;;;;;0.60;0.60;;;9.20;99.90;;;;;;4953509;28;22341;-84
2022/12/21 02:26:29;;;;;;;0.50;0.50;;;9.30;99.90;;;;;;4946375;28;20418;-84
2022/12/21 02:29:26;;;;;;;0.60;0.60;;;9.30;99.90;;;;;;4949131;28;20534;-84
2022/12/21 02:32:19;;;;;;;0.50;0.50;;;9.40;99.90;;;;;;4950564;28;20181;-84
2022/12/21 02:35:00;;;;;;;0.60;0.60;;;9.40;99.90;;;;;;4956470;28;20041;-84
2022/12/21 02:37:41;;;;;;;0.50;0.50;;;9.40;99.90;;;;;;4945588;28;20049;-84
2022/12/21 02:40:25;;;;;;;0.60;0.60;;;9.40;99.90;;;;;;4964847;28;20056;-85
2022/12/21 02:46:26;;;;;;;0.60;0.60;;;9.30;99.90;;;;;;4951409;28;20053;-84
2022/12/21 02:49:05;;;;;;;0.60;0.60;;;9.30;99.90;;;;;;4963600;28;20428;-84
2022/12/21 02:51:39;;;;;;;0.60;0.60;;;9.30;99.90;;;;;;4942127;28;20821;-84
2022/12/21 02:54:07;;;;;;;0.50;0.50;;;9.30;99.90;;;;;;4927336;28;20379;-84
2022/12/21 02:56:33;;;;;;;0.60;0.60;;;9.30;99.90;;;;;;4940866;28;20341;-84
2022/12/21 02:59:00;;;;;;;0.60;0.60;;;9.20;99.90;;;;;;4953871;28;20044;-84
2022/12/21 03:01:38;;;;;;;0.50;0.50;;;9.20;99.90;;;;;;4949521;28;20050;-84
2022/12/21 03:04:21;;;;;;;0.60;0.60;;;9.20;99.90;;;;;;4947091;28;20136;-84
2022/12/21 03:06:47;;;;;;;0.52;0.52;;;9.20;99.90;;;;;;4945107;28;20050;-84
2022/12/21 03:09:51;;;;;;;0.60;0.60;;;9.00;99.90;;;;;;4951524;28;20057;-84
2022/12/21 03:12:43;;;;;;;0.60;0.60;;;8.90;99.90;;;;;;4943942;28;20045;-84
2022/12/21 03:15:19;;;;;;;0.60;0.60;;;8.90;99.90;;;;;;4932303;28;21591;-84
2022/12/21 03:18:04;;;;;;;0.55;0.55;;;9.00;99.90;;;;;;4933662;28;20056;-84
2022/12/21 03:20:36;;;;;;;0.50;0.50;;;8.90;99.90;;;;;;4927598;28;20479;-84
2022/12/21 03:23:25;;;;;;;0.60;0.60;;;8.90;99.90;;;;;;4930017;28;20685;-84
2022/12/21 03:26:06;;;;;;;0.60;0.60;;;8.90;99.90;;;;;;4952989;28;20677;-84
2022/12/21 03:28:35;;;;;;;0.60;0.60;;;8.90;99.90;;;;;;4952021;28;20052;-84
2022/12/21 03:31:06;;;;;;;0.60;0.60;;;8.90;99.90;;;;;;4951948;28;20047;-84
2022/12/21 03:33:40;;;;;;;0.55;0.55;;;8.90;99.90;;;;;;4961088;28;20052;-84
2022/12/21 03:36:11;;;;;;;0.60;0.60;;;8.90;99.90;;;;;;4947497;28;20052;-84
2022/12/21 03:39:03;;;;;;;0.60;0.60;;;8.90;99.90;;;;;;4952298;28;21028;-84
2022/12/21 03:42:00;;;;;;;0.60;0.60;;;8.80;99.90;;;;;;4949023;28;20482;-84
2022/12/21 03:44:43;;;;;;;0.60;0.60;;;8.70;99.90;;;;;;4942971;28;20072;-84
2022/12/21 03:47:21;;;;;;;0.50;0.50;;;8.50;99.90;;;;;;4926562;28;20061;-84
2022/12/21 03:49:51;;;;;;;0.60;0.60;;;8.60;99.90;;;;;;4947582;28;20368;-84
2022/12/21 03:52:24;;;;;;;0.70;0.70;;;8.60;99.90;;;;;;4954790;28;20111;-84
2022/12/21 03:55:12;;;;;;;0.60;0.60;;;8.50;99.90;;;;;;4950305;28;20120;-84
2022/12/21 03:57:39;;;;;;;0.60;0.60;;;8.40;99.90;;;;;;4948764;28;20315;-84
2022/12/21 04:00:07;;;;;;;0.50;0.50;;;8.40;99.90;;;;;;4943905;28;20050;-84
2022/12/21 04:02:56;;;;;;;0.60;0.60;;;8.40;99.90;;;;;;4942211;28;20056;-84
2022/12/21 04:05:30;;;;;;;0.60;0.60;;;8.40;99.90;;;;;;4943171;28;20205;-84
2022/12/21 04:07:56;;;;;;;0.60;0.60;;;8.50;99.90;;;;;;4938887;28;20535;-84
2022/12/21 04:10:24;;;;;;;0.50;0.50;;;8.30;99.90;;;;;;4930351;28;20207;-84
2022/12/21 04:12:53;;;;;;;0.60;0.60;;;8.40;99.90;;;;;;4935065;28;20444;-84
2022/12/21 04:16:02;;;;;;;0.60;0.60;;;8.50;99.90;;;;;;4929945;28;20421;-84
2022/12/21 04:18:11;;;;;;;0.60;0.60;;;8.60;99.90;;;;;;4942035;28;20065;-84
2022/12/21 04:20:37;;;;;;;0.60;0.60;;;8.60;99.90;;;;;;4930339;28;20776;-84
2022/12/21 04:28:32;;;;;;;0.57;0.57;;;8.60;99.90;;;;;;4956896;28;20061;-84
2022/12/21 04:30:59;;;;;;;0.60;0.60;;;8.60;99.90;;;;;;4953003;28;20060;-83
2022/12/21 04:33:28;;;;;;;0.60;0.60;;;8.50;99.90;;;;;;4945446;28;20072;-84
2022/12/21 04:38:41;;;;;;;0.60;0.60;;;8.50;99.90;;;;;;4947729;28;20640;-84
2022/12/21 04:41:08;;;;;;;0.60;0.60;;;8.50;99.90;;;;;;4946586;28;21835;-83
2022/12/21 04:43:39;;;;;;;0.60;0.60;;;8.30;99.90;;;;;;4953696;28;20102;-84
2022/12/21 04:46:11;;;;;;;0.60;0.60;;;8.40;99.90;;;;;;4942265;28;20077;-84
2022/12/21 04:48:38;;;;;;;0.60;0.60;;;8.40;99.90;;;;;;4953225;28;20043;-83
2022/12/21 04:51:11;;;;;;;0.60;0.60;;;8.40;99.90;;;;;;4960171;28;20415;-84
2022/12/21 04:53:37;;;;;;;0.60;0.60;;;8.30;99.90;;;;;;4942986;28;20045;-82
2022/12/21 04:56:03;;;;;;;0.60;0.60;;;8.20;99.90;;;;;;4931897;28;21087;-83
2022/12/21 04:58:29;;;;;;;0.60;0.60;;;8.20;99.90;;;;;;4947756;28;20488;-84
2022/12/21 05:00:55;;;;;;;0.60;0.60;;;8.40;99.90;;;;;;4938478;28;20514;-84
2022/12/21 05:03:21;;;;;;;0.60;0.60;;;8.30;99.90;;;;;;4948532;28;20059;-84
2022/12/21 05:05:47;;;;;;;0.60;0.60;;;8.30;99.90;;;;;;4941081;28;20053;-84
2022/12/21 05:08:13;;;;;;;0.60;0.60;;;8.50;99.90;;;;;;4951110;28;20049;-83
2022/12/21 05:10:40;;;;;;;0.60;0.60;;;8.50;99.90;;;;;;4946796;28;20053;-84
2022/12/21 05:13:05;;;;;;;0.60;0.60;;;8.60;99.90;;;;;;4929821;28;20053;-84
2022/12/21 05:15:36;;;;;;;0.60;0.60;;;8.40;99.90;;;;;;4953535;28;20041;-83
2022/12/21 05:18:02;;;;;;;0.60;0.60;;;8.50;99.90;;;;;;4954296;28;20050;-84
2022/12/21 05:20:28;;;;;;;0.52;0.52;;;8.50;99.90;;;;;;4954874;28;20261;-84
2022/12/21 05:22:54;;;;;;;0.60;0.60;;;8.60;99.90;;;;;;4910755;28;20052;-84
2022/12/21 05:25:20;;;;;;;0.60;0.60;;;8.40;99.90;;;;;;4934138;28;20041;-83
2022/12/21 05:27:46;;;;;;;0.60;0.60;;;8.50;99.90;;;;;;4943942;28;20053;-83
2022/12/21 05:30:12;;;;;;;0.60;0.60;;;8.50;99.90;;;;;;4930074;28;20565;-84
2022/12/21 05:32:38;;;;;;;0.60;0.60;;;8.40;99.90;;;;;;4951359;28;20049;-84
2022/12/21 05:35:04;;;;;;;0.60;0.60;;;8.60;99.90;;;;;;4954360;28;20060;-84
2022/12/21 05:37:30;;;;;;;0.60;0.60;;;8.60;99.90;;;;;;4945552;28;20406;-84
2022/12/21 05:39:56;;;;;;;0.60;0.60;;;8.60;99.90;;;;;;4951469;28;20394;-84
2022/12/21 05:42:24;;;;;;;0.60;0.60;;;8.70;99.90;;;;;;4936802;28;20056;-84
2022/12/21 05:44:50;;;;;;;0.50;0.50;;;8.80;99.90;;;;;;4951656;28;20369;-83
2022/12/21 05:47:16;;;;;;;0.60;0.60;;;8.80;99.90;;;;;;4948204;28;20122;-83
2022/12/21 05:49:42;;;;;;;0.60;0.60;;;8.80;99.90;;;;;;4943120;28;20636;-83
2022/12/21 05:52:08;;;;;;;0.60;0.60;;;8.90;99.90;;;;;;4948894;28;20049;-83
2022/12/21 05:54:34;;;;;;;0.60;0.60;;;8.80;99.90;;;;;;4933056;28;20700;-84
2022/12/21 05:57:00;;;;;;;0.60;0.60;;;8.90;99.90;;;;;;4914692;28;20446;-83
2022/12/21 05:59:26;;;;;;;0.60;0.60;;;8.80;99.90;;;;;;4950475;28;20429;-83
2022/12/21 06:01:51;;;;;;;0.60;0.60;;;8.90;99.90;;;;;;4943475;28;20134;-83
2022/12/21 06:04:17;;;;;;;0.60;0.60;;;8.90;99.90;;;;;;4944437;28;20890;-83
2022/12/21 06:06:46;;;;;;;0.60;0.60;;;8.90;99.90;;;;;;4945287;28;20807;-84
2022/12/21 06:09:12;;;;;;;0.60;0.60;;;8.90;99.90;;;;;;4946095;28;20057;-84
2022/12/21 06:11:38;;;;;;;0.60;0.60;;;8.90;99.90;;;;;;4950023;28;20064;-84
2022/12/21 06:14:04;;;;;;;0.60;0.60;;;9.00;99.90;;;;;;4946740;28;20587;-84
2022/12/21 06:16:30;;;;;;;0.60;0.60;;;9.00;99.90;;;;;;4939521;28;20052;-84
2022/12/21 06:18:56;;;;;;;0.60;0.60;;;9.00;99.90;;;;;;4949969;28;20882;-83
2022/12/21 06:21:22;;;;;;;0.60;0.60;;;9.00;99.90;;;;;;4954196;28;20056;-84
2022/12/21 06:23:48;;;;;;;0.52;0.52;;;9.00;99.90;;;;;;4952542;28;20056;-85
2022/12/21 06:26:16;;;;;;;0.60;0.60;;;9.00;99.90;;;;;;4934681;28;20519;-84
2022/12/21 06:28:50;;;;;;;0.60;0.60;;;8.90;99.90;;;;;;4972794;28;20117;-85
2022/12/21 06:31:17;;;;;;;0.60;0.60;;;9.00;99.90;;;;;;4948467;28;20831;-84
2022/12/21 06:33:43;;;;;;;0.60;0.60;;;9.10;99.90;;;;;;4951414;28;20055;-84
2022/12/21 06:36:10;;;;;;;0.60;0.60;;;9.00;99.90;;;;;;4949692;28;20053;-84
2022/12/21 06:38:36;;;;;;;0.60;0.60;;;9.10;99.90;;;;;;4953368;28;20048;-83
2022/12/21 06:41:08;;;;;;;0.60;0.60;;;9.00;99.90;;;;;;4952400;28;20091;-84
2022/12/21 06:43:36;;;;;;;0.60;0.60;;;9.10;99.90;;;;;;4948079;28;20119;-84
2022/12/21 06:46:05;;;;;;;0.60;0.60;;;9.10;99.90;;;;;;4947502;28;20088;-84
2022/12/21 06:48:32;;;;;;;0.60;0.60;;;9.00;99.90;;;;;;4949580;28;20052;-84
2022/12/21 06:51:01;;;;;;;0.60;0.60;;;9.10;99.90;;;;;;4933146;28;20067;-84
2022/12/21 06:53:30;;;;;;;0.60;0.60;;;9.10;99.90;;;;;;4950920;28;20109;-84
2022/12/21 06:56:02;;;;;;;0.60;0.60;;;9.10;99.90;;;;;;4947468;28;20099;-84
2022/12/21 06:58:28;;;;;;;0.60;0.60;;;9.00;99.90;;;;;;4954282;28;20051;-84
2022/12/21 07:00:54;;;;;;;0.50;0.50;;;9.00;99.90;;;;;;4947498;28;20415;-84
2022/12/21 07:03:21;;;;;;;0.60;0.60;;;9.10;99.90;;;;;;4949671;28;20695;-83
2022/12/21 07:05:47;;;;;;;0.60;0.60;;;9.00;99.90;;;;;;4929070;28;20045;-85
2022/12/21 07:08:13;;;;;;;0.60;0.60;;;9.10;99.90;;;;;;4952754;28;20044;-84
2022/12/21 07:10:39;;;;;;;0.60;0.60;;;9.00;99.90;;;;;;4956608;28;20449;-84
2022/12/21 07:13:06;;;;;;;0.60;0.60;;;9.00;99.90;;;;;;4949843;28;20049;-83
2022/12/21 07:15:32;;;;;;;0.60;0.60;;;8.90;99.90;;;;;;4936814;28;20052;-84
2022/12/21 07:17:58;;;;;;;0.60;0.60;;;9.00;99.90;;;;;;4950821;28;20601;-84
2022/12/21 07:20:24;;;;;;;0.60;0.60;;;8.90;99.90;;;;;;4952552;28;20037;-83
2022/12/21 07:22:50;;;;;;;0.60;0.60;;;9.00;99.90;;;;;;4944549;28;20048;-83
2022/12/21 07:25:16;;;;;;;0.55;0.55;;;9.00;99.90;;;;;;4933524;28;20323;-84
2022/12/21 07:27:43;;;;;;;0.60;0.60;;;9.00;99.90;;;;;;4947290;28;20106;-84
2022/12/21 07:30:09;;;;;;;0.50;0.50;;;9.00;99.90;;;;;;4949539;28;20045;-84
2022/12/21 07:32:35;;;;;;;0.60;0.60;;;9.00;99.90;;;;;;4946868;28;20500;-84
2022/12/21 07:35:01;;;;;;;0.60;0.60;;;8.90;99.90;;;;;;4949309;28;20045;-85
2022/12/21 07:37:27;;;;;;;0.60;0.60;;;9.00;99.90;;;;;;4948953;28;20375;-84
2022/12/21 07:39:53;;;;;;;0.60;0.60;;;9.00;99.90;;;;;;4954101;28;20048;-84
2022/12/21 07:42:19;;;;;;;0.60;0.60;;;8.90;99.90;;;;;;4933438;28;20056;-84
2022/12/21 07:44:45;;;;;;;0.60;0.60;;;8.90;99.90;;;;;;4950696;28;20305;-84
2022/12/21 07:47:10;;;;;;;0.60;0.60;;;8.90;99.90;;;;;;4954832;28;20053;-85
2022/12/21 07:49:37;;;;;;;0.60;0.60;;;8.90;99.90;;;;;;4948758;28;20041;-84
2022/12/21 07:52:03;;;;;;;0.60;0.60;;;9.00;99.90;;;;;;4943096;28;20469;-85
2022/12/21 07:54:28;;;;;;;0.60;0.60;;;8.90;99.90;;;;;;4954575;28;20045;-85
2022/12/21 07:56:54;;;;;;;0.60;0.60;;;8.90;99.90;;;;;;4952819;28;20340;-84
2022/12/21 07:59:20;;;;;;;0.60;0.60;;;8.80;99.90;;;;;;4945035;28;20201;-84
2022/12/21 08:01:46;;;;;;;0.60;0.60;;;8.90;99.90;;;;;;4940748;28;20055;-83
2022/12/21 08:04:12;;;;;;;0.60;0.60;;;8.90;99.90;;;;;;4943881;28;20042;-85
2022/12/21 08:06:38;;;;;;;0.60;0.60;;;8.90;99.90;;;;;;4929252;28;20769;-83
2022/12/21 08:09:04;;;;;;;0.65;0.65;;;8.90;99.90;;;;;;4910300;28;20579;-83
2022/12/21 08:11:29;;;;;;;0.60;0.60;;;8.80;99.90;;;;;;4940025;28;20045;-83
2022/12/21 08:13:56;;;;;;;0.50;0.50;;;8.90;99.90;;;;;;4942709;28;20038;-83
2022/12/21 08:16:22;;;;;;;0.60;0.60;;;8.90;99.90;;;;;;4937108;28;20296;-84
2022/12/21 08:18:48;;;;;;;0.50;0.50;;;8.90;99.90;;;;;;4941918;28;20045;-84
2022/12/21 08:21:16;;;;;;;0.50;0.50;;;8.90;99.90;;;;;;4926700;28;20126;-83
2022/12/21 08:23:42;;;;;;;0.60;0.60;;;9.00;99.90;;;;;;4941612;28;20052;-84
2022/12/21 08:26:10;;;;;;;0.60;0.60;;;8.90;99.90;;;;;;4940349;28;20549;-84
2022/12/21 08:28:37;;;;;;;0.60;0.60;;;8.90;99.90;;;;;;4936316;28;20080;-84
2022/12/21 08:31:06;;;;;;;0.60;0.60;;;8.90;99.90;;;;;;4927968;28;20045;-83
2022/12/21 08:33:32;;;;;;;0.60;0.60;;;8.90;99.90;;;;;;4944162;28;20128;-84
2022/12/21 08:35:58;;;;;;;0.60;0.60;;;9.00;99.90;;;;;;4937745;28;20407;-83
2022/12/21 08:38:24;;;;;;;0.60;0.60;;;8.90;99.90;;;;;;4927826;28;20041;-84
2022/12/21 08:40:51;;;;;;;0.50;0.50;;;8.90;99.90;;;;;;4932451;28;20577;-83
2022/12/21 08:43:18;;;;;;;0.50;0.50;;;9.00;99.90;;;;;;4919881;28;20973;-84
2022/12/21 08:45:44;;;;;;;0.60;0.60;;;9.00;99.90;;;;;;4932623;28;20529;-84
2022/12/21 08:48:11;;;;;;;0.60;0.60;;;8.90;99.90;;;;;;4926978;28;20436;-85
2022/12/21 08:50:37;;;;;;;0.60;0.60;;;8.90;99.90;;;;;;4940635;28;20050;-84
2022/12/21 08:53:03;;;;;;;0.60;0.60;;;9.00;99.90;;;;;;4941792;28;20795;-84
2022/12/21 08:55:30;;;;;;;0.60;0.60;;;8.90;99.90;;;;;;4934434;28;20049;-84
2022/12/21 08:57:56;;;;;;;0.60;0.60;;;9.00;99.90;;;;;;4939141;28;20451;-83
2022/12/21 09:00:24;;;;;;;0.60;0.60;;;9.10;99.90;;;;;;4935236;28;20433;-82
2022/12/21 09:02:50;;;;;;;0.60;0.60;;;9.10;99.90;;;;;;4940808;28;21001;-84
2022/12/21 09:05:16;;;;;;;0.60;0.60;;;9.10;99.90;;;;;;4937284;28;20814;-83
2022/12/21 09:07:41;;;;;;;0.60;0.60;;;9.20;99.90;;;;;;4933438;28;20077;-82
2022/12/21 09:10:08;;;;;;;0.60;0.60;;;9.20;99.90;;;;;;4939543;28;20674;-83
2022/12/21 09:12:33;;;;;;;0.60;0.60;;;9.30;99.90;;;;;;4930772;28;20046;-84
2022/12/21 09:14:59;;;;;;;0.60;0.60;;;9.30;99.90;;;;;;4939416;28;20056;-87
2022/12/21 09:17:25;;;;;;;0.60;0.60;;;9.20;99.90;;;;;;4945918;28;20742;-85
2022/12/21 09:19:51;;;;;;;0.60;0.60;;;9.10;99.90;;;;;;4917136;28;20132;-85
2022/12/21 09:22:17;;;;;;;0.60;0.60;;;9.20;99.90;;;;;;4908188;28;20202;-84
2022/12/21 09:24:44;;;;;;;0.60;0.60;;;9.20;99.90;;;;;;4948848;28;20097;-85
2022/12/21 09:27:10;;;;;;;0.60;0.60;;;9.10;99.90;;;;;;4950604;28;20463;-85
2022/12/21 09:29:36;;;;;;;0.60;0.60;;;9.20;99.90;;;;;;4938120;28;20422;-84
2022/12/21 09:32:02;;;;;;;0.60;0.60;;;9.20;99.90;;;;;;4948225;28;20065;-84
2022/12/21 09:34:28;;;;;;;0.60;0.60;;;9.20;99.90;;;;;;4935335;28;20496;-84
2022/12/21 09:36:53;;;;;;;0.60;0.60;;;9.10;99.90;;;;;;4913554;28;20763;-86
2022/12/21 09:39:19;;;;;;;0.60;0.60;;;9.10;99.90;;;;;;4931164;28;20076;-84
2022/12/21 09:42:00;;;;;;;0.60;0.60;;;9.10;99.90;;;;;;4951378;28;20065;-85
2022/12/21 09:44:40;;;;;;;0.60;0.60;;;9.10;99.90;;;;;;4931257;28;20106;-86
2022/12/21 09:47:10;;;;;;;0.60;0.60;;;9.10;99.90;;;;;;4930127;28;20064;-85
2022/12/21 09:49:45;;;;;;;0.60;0.60;;;9.10;99.90;;;;;;4960183;28;20830;-84
2022/12/21 09:52:40;;;;;;;0.60;0.60;;;9.20;99.90;;;;;;4946405;28;20626;-83
2022/12/21 09:55:14;;;;;;;0.60;0.60;;;9.40;99.90;;;;;;4934084;28;20602;-86
2022/12/21 09:57:40;;;;;;;0.60;0.60;;;9.40;99.90;;;;;;4954195;28;20106;-84
2022/12/21 10:00:16;;;;;;;0.60;0.60;;;9.40;99.90;;;;;;4936955;28;20141;-83
2022/12/21 10:03:01;;;;;;;0.60;0.60;;;9.40;99.90;;;;;;4930615;28;20048;-85
2022/12/21 10:05:53;;;;;;;0.60;0.60;;;9.50;99.90;;;;;;4959864;28;20582;-84
2022/12/21 10:08:39;;;;;;;0.60;0.60;;;9.50;99.90;;;;;;4949658;28;20380;-84
2022/12/21 10:11:19;;;;;;;0.60;0.60;;;9.50;99.90;;;;;;4955486;28;20830;-84
2022/12/21 10:14:14;;;;;;;0.60;0.60;;;9.50;99.90;;;;;;4958339;28;20081;-84
2022/12/21 10:16:53;;;;;;;0.60;0.60;;;9.50;99.90;;;;;;4947263;28;20041;-83
2022/12/21 10:19:59;;;;;;;0.60;0.60;;;9.50;99.90;;;;;;4951491;28;20186;-84
2022/12/21 10:22:32;;;;;;;0.60;0.60;;;9.60;99.90;;;;;;4944204;28;20057;-83
2022/12/21 10:25:03;;;;;;;0.60;0.60;;;9.60;99.90;;;;;;4949080;28;20394;-86
2022/12/21 10:28:21;;;;;;;0.60;0.60;;;9.60;99.90;;;;;;4952917;28;20787;-84
2022/12/21 10:30:55;;;;;;;0.60;0.60;;;9.70;99.90;;;;;;4893330;28;20609;-85
2022/12/21 10:33:23;;;;;;;0.60;0.60;;;9.70;99.90;;;;;;4953342;28;20415;-85
2022/12/21 10:35:53;;;;;;;0.60;0.60;;;9.70;99.90;;;;;;4955677;28;20487;-86
2022/12/21 10:38:19;;;;;;;0.50;0.50;;;9.60;99.90;;;;;;4953072;28;20061;-85
2022/12/21 10:40:52;;;;;;;0.60;0.60;;;9.60;99.90;;;;;;4950786;28;20045;-85
2022/12/21 10:43:20;;;;;;;0.60;0.60;;;9.70;99.90;;;;;;4946164;28;20453;-86
2022/12/21 10:45:46;;;;;;;0.60;0.60;;;9.70;99.90;;;;;;4953507;28;20073;-85
2022/12/21 10:48:12;;;;;;;0.60;0.60;;;9.80;99.90;;;;;;4940225;28;20117;-86
2022/12/21 10:50:43;;;;;;;0.60;0.60;;;9.90;99.90;;;;;;4932861;28;20424;-85
2022/12/21 10:53:27;;;;;;;0.60;0.60;;;9.80;99.90;;;;;;4933418;28;20625;-84
2022/12/21 10:56:00;;;;;;;0.60;0.60;;;9.70;99.90;;;;;;4951811;28;20049;-85
2022/12/21 10:58:31;;;;;;;0.60;0.60;;;9.80;99.90;;;;;;4963665;28;20565;-84
2022/12/21 11:01:15;;;;;;;0.60;0.60;;;9.70;99.90;;;;;;4951241;28;20054;-86
2022/12/21 11:03:41;;;;;;;0.60;0.60;;;9.80;99.90;;;;;;4947891;28;20115;-85
2022/12/21 11:06:16;;;;;;;0.60;0.60;;;9.80;99.90;;;;;;4951976;28;20380;-84
2022/12/21 11:08:45;;;;;;;0.60;0.60;;;9.90;99.90;;;;;;4953917;28;20468;-84
2022/12/21 11:11:29;;;;;;;0.60;0.60;;;9.90;99.90;;;;;;4956646;28;20816;-86
2022/12/21 11:14:03;;;;;;;0.60;0.60;;;10.20;99.90;;;;;;4946939;28;20233;-85
2022/12/21 11:16:31;;;;;;;0.60;0.60;;;10.30;99.90;;;;;;4976748;28;20045;-86
2022/12/21 11:19:01;;;;;;;0.60;0.60;;;10.20;99.90;;;;;;4948717;28;20061;-86
2022/12/21 11:21:46;;;;;;;0.60;0.60;;;10.00;99.90;;;;;;4964056;28;20080;-85
2022/12/21 11:24:28;;;;;;;0.60;0.60;;;10.00;99.90;;;;;;4952625;28;20051;-85
2022/12/21 11:27:03;;;;;;;0.60;0.60;;;10.20;99.90;;;;;;4947821;28;20064;-86
2022/12/21 11:29:48;;;;;;;0.60;0.60;;;10.20;99.90;;;;;;4954606;28;20231;-85
2022/12/21 11:32:16;;;;;;;0.60;0.60;;;10.20;99.90;;;;;;4935181;28;20053;-86
2022/12/21 11:34:57;;;;;;;0.60;0.60;;;10.30;99.90;;;;;;4958285;28;20053;-85
2022/12/21 11:37:45;;;;;;;0.52;0.52;;;10.50;99.90;;;;;;4951893;28;20914;-89
2022/12/21 11:40:10;;;;;;;1.75;0.60;;;10.30;99.90;;;;;;4963384;28;20045;-85
2022/12/21 11:42:52;;;;;;;0.60;0.60;;;10.30;99.90;;;;;;4951092;28;20077;-83
2022/12/21 11:45:40;;;;;;;0.60;0.60;;;10.30;99.90;;;;;;4941863;28;20789;-85
2022/12/21 11:48:09;;;;;;;0.60;0.60;;;10.30;99.90;;;;;;4947760;28;20049;-85
2022/12/21 11:50:39;;;;;;;0.70;0.70;;;10.30;99.90;;;;;;4955554;28;20037;-85
2022/12/21 11:53:24;;;;;;;0.60;0.60;;;10.30;99.90;;;;;;4958907;28;20422;-86
2022/12/21 11:56:17;;;;;;;0.60;0.60;;;10.30;99.90;;;;;;4952952;28;20052;-87
2022/12/21 11:58:43;;;;;;;0.60;0.60;;;10.50;99.90;;;;;;4955306;28;20464;-87
2022/12/21 12:01:44;;;;;;;0.60;0.60;;;10.40;99.90;;;;;;4927243;28;20052;-85
2022/12/21 12:04:46;;;;;;;0.50;0.50;;;10.60;99.90;;;;;;4932453;28;20046;-85
2022/12/21 12:07:28;;;;;;;0.50;0.50;;;10.80;99.90;;;;;;4940252;28;20459;-87
2022/12/21 12:10:11;;;;;;;0.60;0.60;;;10.60;99.90;;;;;;4943438;28;20129;-85
2022/12/21 12:12:53;;;;;;;0.60;0.60;;;10.40;99.90;;;;;;4951863;28;20081;-85
2022/12/21 12:15:39;;;;;;;0.50;0.50;;;10.30;99.90;;;;;;4945684;28;20045;-85
2022/12/21 12:18:14;;;;;;;0.60;0.60;;;10.10;99.90;;;;;;4944309;28;20559;-83
2022/12/21 12:20:46;;;;;;;0.60;0.60;;;9.90;99.90;;;;;;4943308;28;20088;-84
2022/12/21 12:23:18;;;;;;;0.60;0.60;;;9.80;99.90;;;;;;4938864;28;20454;-85
2022/12/21 12:26:12;;;;;;;0.60;0.60;;;9.90;99.90;;;;;;4936798;28;20124;-85
2022/12/21 12:29:16;;;;;;;0.60;0.60;;;9.80;99.90;;;;;;4948867;28;20795;-84
2022/12/21 12:31:42;;;;;;;0.60;0.60;;;9.90;99.90;;;;;;4932926;28;20159;-85
2022/12/21 12:34:10;;;;;;;0.60;0.60;;;10.00;99.90;;;;;;4941344;28;20056;-85
2022/12/21 12:37:05;;;;;;;0.60;0.60;;;9.90;99.90;;;;;;4935222;28;20556;-84
2022/12/21 12:39:53;;;;;;;0.60;0.60;;;10.00;99.90;;;;;;4946099;28;20053;-89
2022/12/21 12:42:21;;;;;;;0.50;0.50;;;10.00;99.90;;;;;;4925289;28;20064;-86
2022/12/21 12:45:05;;;;;;;0.60;0.60;;;10.00;99.90;;;;;;4934888;28;20057;-84
2022/12/21 12:47:56;;;;;;;0.60;0.60;;;9.90;99.90;;;;;;4946304;28;20053;-82
2022/12/21 12:50:36;;;;;;;0.60;0.60;;;10.00;99.90;;;;;;4940005;28;20053;-84
2022/12/21 12:53:08;;;;;;;0.55;0.55;;;10.00;99.90;;;;;;4936270;28;20054;-86
2022/12/21 12:56:00;;;;;;;0.60;0.60;;;10.00;99.90;;;;;;4930360;28;20823;-88
2022/12/21 12:58:54;;;;;;;0.60;0.60;;;10.00;99.90;;;;;;4944968;28;20057;-92
2022/12/21 13:01:43;;;;;;;0.52;0.52;;;10.00;99.90;;;;;;4941580;28;20442;-86
2022/12/21 13:04:48;;;;;;;0.60;0.60;;;9.90;99.90;;;;;;4953274;28;20483;-85
2022/12/21 13:07:33;;;;;;;0.60;0.60;;;9.90;99.90;;;;;;4922091;28;20519;-85
2022/12/21 13:10:16;;;;;;;0.60;0.60;;;10.00;99.90;;;;;;4948178;28;20064;-86
2022/12/21 13:12:48;;;;;;;0.60;0.60;;;9.90;99.90;;;;;;4941917;28;20088;-89
2022/12/21 13:15:24;;;;;;;0.60;0.60;;;10.00;99.90;;;;;;4957966;28;20140;-84
2022/12/21 13:17:50;;;;;;;0.60;0.60;;;10.00;99.90;;;;;;4938032;28;20045;-87
2022/12/21 13:20:23;;;;;;;0.60;0.60;;;9.90;99.90;;;;;;4943161;28;20501;-87
2022/12/21 13:23:15;;;;;;;0.60;0.60;;;9.80;99.90;;;;;;4955147;28;20056;-86
2022/12/21 13:25:59;;;;;;;0.60;0.60;;;9.80;99.90;;;;;;4974917;28;22539;-86
2022/12/21 13:28:32;;;;;;;0.60;0.60;;;9.80;99.90;;;;;;4949402;28;20565;-85
2022/12/21 13:31:03;;;;;;;0.50;0.50;;;9.70;99.90;;;;;;4953605;28;20465;-85
2022/12/21 13:33:31;;;;;;;0.60;0.60;;;9.70;99.90;;;;;;4951657;28;20053;-86
2022/12/21 13:36:09;;;;;;;0.60;0.60;;;9.70;99.90;;;;;;4952750;28;20154;-87